sensor_id;sensor_type;location;lat;lon;timestamp;pressure;altitude;pressure_sealevel;temperature;humidity
40708;BME280;26392;42.696;23.350;2023-04-07T00:00:20;95043.13;;;2.53;75.65
40708;BME280;26392;42.696;23.350;2023-04-07T00:02:46;95032.03;;;2.22;82.43
40708;BME280;26392;42.696;23.350;2023-04-07T00:05:13;95030.44;;;1.88;87.53
40708;BME280;26392;42.696;23.350;2023-04-07T00:07:38;95040.16;;;1.69;92.43
40708;BME280;26392;42.696;23.350;2023-04-07T00:10:05;95034.16;;;1.61;95.44
40708;BME280;26392;42.696;23.350;2023-04-07T00:12:30;95040.75;;;1.45;98.38
40708;BME280;26392;42.696;23.350;2023-04-07T00:14:56;95039.53;;;1.41;100.00
40708;BME280;26392;42.696;23.350;2023-04-07T00:17:21;95036.19;;;1.25;100.00
40708;BME280;26392;42.696;23.350;2023-04-07T00:19:46;95031.41;;;1.14;100.00
40708;BME280;26392;42.696;23.350;2023-04-07T00:22:12;95032.41;;;1.00;100.00
40708;BME280;26392;42.696;23.350;2023-04-07T00:24:37;95028.91;;;0.93;100.00
40708;BME280;26392;42.696;23.350;2023-04-07T00:27:03;95037.31;;;0.76;100.00
40708;BME280;26392;42.696;23.350;2023-04-07T00:29:28;95022.16;;;0.55;100.00
40708;BME280;26392;42.696;23.350;2023-04-07T00:31:53;95031.44;;;0.53;100.00
40708;BME280;26392;42.696;23.350;2023-04-07T00:34:19;95040.34;;;0.60;100.00
40708;BME280;26392;42.696;23.350;2023-04-07T00:36:44;95032.47;;;0.52;100.00
40708;BME280;26392;42.696;23.350;2023-04-07T00:39:16;95027.09;;;0.52;100.00
40708;BME280;26392;42.696;23.350;2023-04-07T00:41:41;95032.88;;;0.49;100.00
40708;BME280;26392;42.696;23.350;2023-04-07T00:44:07;95029.38;;;0.48;100.00
40708;BME280;26392;42.696;23.350;2023-04-07T00:46:32;95025.63;;;0.42;100.00
40708;BME280;26392;42.696;23.350;2023-04-07T00:48:58;95032.22;;;0.47;100.00
40708;BME280;26392;42.696;23.350;2023-04-07T00:51:25;95026.44;;;0.43;100.00
40708;BME280;26392;42.696;23.350;2023-04-07T00:53:51;95015.72;;;0.43;100.00
40708;BME280;26392;42.696;23.350;2023-04-07T00:56:16;95027.50;;;0.49;100.00
40708;BME280;26392;42.696;23.350;2023-04-07T00:58:42;95030.59;;;0.52;100.00
40708;BME280;26392;42.696;23.350;2023-04-07T01:01:12;95026.88;;;0.53;100.00
40708;BME280;26392;42.696;23.350;2023-04-07T01:04:04;95025.06;;;0.60;100.00
40708;BME280;26392;42.696;23.350;2023-04-07T01:06:36;95026.47;;;0.50;100.00
40708;BME280;26392;42.696;23.350;2023-04-07T01:09:06;95026.50;;;0.56;100.00
40708;BME280;26392;42.696;23.350;2023-04-07T01:14:17;95023.59;;;0.51;100.00
40708;BME280;26392;42.696;23.350;2023-04-07T01:16:51;95020.88;;;0.44;100.00
40708;BME280;26392;42.696;23.350;2023-04-07T01:19:36;95022.72;;;0.44;100.00
40708;BME280;26392;42.696;23.350;2023-04-07T01:22:13;95026.06;;;0.53;100.00
40708;BME280;26392;42.696;23.350;2023-04-07T01:25:08;95017.19;;;0.52;100.00
40708;BME280;26392;42.696;23.350;2023-04-07T01:30:22;95010.84;;;0.66;100.00
40708;BME280;26392;42.696;23.350;2023-04-07T01:32:52;95010.44;;;0.56;100.00
40708;BME280;26392;42.696;23.350;2023-04-07T01:35:18;95024.59;;;0.43;100.00
40708;BME280;26392;42.696;23.350;2023-04-07T01:37:46;95012.00;;;0.44;100.00
40708;BME280;26392;42.696;23.350;2023-04-07T01:40:14;95013.28;;;0.55;100.00
40708;BME280;26392;42.696;23.350;2023-04-07T01:42:41;95007.47;;;0.44;100.00
40708;BME280;26392;42.696;23.350;2023-04-07T01:45:07;95012.66;;;0.46;100.00
40708;BME280;26392;42.696;23.350;2023-04-07T01:47:35;95011.66;;;0.60;100.00
40708;BME280;26392;42.696;23.350;2023-04-07T01:50:04;95021.59;;;0.66;100.00
40708;BME280;26392;42.696;23.350;2023-04-07T01:52:32;95014.16;;;0.69;100.00
40708;BME280;26392;42.696;23.350;2023-04-07T01:54:58;95013.97;;;0.70;100.00
40708;BME280;26392;42.696;23.350;2023-04-07T01:57:24;95009.22;;;0.72;100.00
40708;BME280;26392;42.696;23.350;2023-04-07T01:59:49;95009.38;;;0.57;100.00
40708;BME280;26392;42.696;23.350;2023-04-07T02:02:14;95009.22;;;0.65;100.00
40708;BME280;26392;42.696;23.350;2023-04-07T02:04:53;95004.28;;;0.69;100.00
40708;BME280;26392;42.696;23.350;2023-04-07T02:07:38;94992.13;;;0.86;100.00
40708;BME280;26392;42.696;23.350;2023-04-07T02:10:09;94998.53;;;0.92;100.00
40708;BME280;26392;42.696;23.350;2023-04-07T02:12:37;94991.13;;;1.01;100.00
40708;BME280;26392;42.696;23.350;2023-04-07T02:15:05;94995.72;;;1.14;100.00
40708;BME280;26392;42.696;23.350;2023-04-07T02:17:31;94996.34;;;1.22;100.00
40708;BME280;26392;42.696;23.350;2023-04-07T02:20:00;94993.41;;;0.97;100.00
40708;BME280;26392;42.696;23.350;2023-04-07T02:22:27;95001.84;;;0.87;100.00
40708;BME280;26392;42.696;23.350;2023-04-07T02:24:53;95000.84;;;1.08;100.00
40708;BME280;26392;42.696;23.350;2023-04-07T02:27:18;94999.03;;;1.16;100.00
40708;BME280;26392;42.696;23.350;2023-04-07T02:29:44;95002.97;;;1.33;100.00
40708;BME280;26392;42.696;23.350;2023-04-07T02:32:10;95003.78;;;1.27;100.00
40708;BME280;26392;42.696;23.350;2023-04-07T02:34:35;95001.47;;;1.17;100.00
40708;BME280;26392;42.696;23.350;2023-04-07T02:37:01;95005.84;;;1.31;100.00
40708;BME280;26392;42.696;23.350;2023-04-07T02:39:26;95007.09;;;1.55;100.00
40708;BME280;26392;42.696;23.350;2023-04-07T02:41:52;95010.81;;;1.61;100.00
40708;BME280;26392;42.696;23.350;2023-04-07T02:44:17;95008.34;;;1.53;100.00
40708;BME280;26392;42.696;23.350;2023-04-07T02:46:42;95012.03;;;1.65;100.00
40708;BME280;26392;42.696;23.350;2023-04-07T02:49:08;95011.84;;;1.80;100.00
40708;BME280;26392;42.696;23.350;2023-04-07T02:51:33;95012.88;;;1.86;100.00
40708;BME280;26392;42.696;23.350;2023-04-07T02:53:58;95007.09;;;1.69;100.00
40708;BME280;26392;42.696;23.350;2023-04-07T02:56:24;95009.97;;;1.67;100.00
40708;BME280;26392;42.696;23.350;2023-04-07T02:58:50;95016.16;;;1.81;100.00
40708;BME280;26392;42.696;23.350;2023-04-07T03:01:15;95017.59;;;1.90;100.00
40708;BME280;26392;42.696;23.350;2023-04-07T03:03:40;95012.22;;;1.90;100.00
40708;BME280;26392;42.696;23.350;2023-04-07T03:06:08;94995.94;;;1.85;100.00
40708;BME280;26392;42.696;23.350;2023-04-07T03:08:34;95005.41;;;2.08;100.00
40708;BME280;26392;42.696;23.350;2023-04-07T03:10:59;95006.63;;;2.12;100.00
40708;BME280;26392;42.696;23.350;2023-04-07T03:13:25;94998.72;;;2.23;100.00
40708;BME280;26392;42.696;23.350;2023-04-07T03:15:50;95009.69;;;2.29;100.00
40708;BME280;26392;42.696;23.350;2023-04-07T03:18:16;95006.16;;;2.28;100.00
40708;BME280;26392;42.696;23.350;2023-04-07T03:20:42;95008.84;;;2.28;100.00
40708;BME280;26392;42.696;23.350;2023-04-07T03:23:08;95010.94;;;2.26;100.00
40708;BME280;26392;42.696;23.350;2023-04-07T03:25:34;94995.88;;;2.12;100.00
40708;BME280;26392;42.696;23.350;2023-04-07T03:27:59;95011.22;;;1.91;100.00
40708;BME280;26392;42.696;23.350;2023-04-07T03:30:25;95001.91;;;1.67;100.00
40708;BME280;26392;42.696;23.350;2023-04-07T03:32:51;94988.09;;;1.64;100.00
40708;BME280;26392;42.696;23.350;2023-04-07T03:35:16;94998.81;;;1.70;100.00
40708;BME280;26392;42.696;23.350;2023-04-07T03:37:42;94998.41;;;1.67;100.00
40708;BME280;26392;42.696;23.350;2023-04-07T03:40:07;95000.25;;;1.73;100.00
40708;BME280;26392;42.696;23.350;2023-04-07T03:42:33;95005.03;;;1.44;100.00
40708;BME280;26392;42.696;23.350;2023-04-07T03:44:58;95005.84;;;1.18;100.00
40708;BME280;26392;42.696;23.350;2023-04-07T03:47:24;95008.94;;;1.15;100.00
40708;BME280;26392;42.696;23.350;2023-04-07T03:49:49;95006.63;;;1.12;100.00
40708;BME280;26392;42.696;23.350;2023-04-07T03:52:15;95012.22;;;1.10;100.00
40708;BME280;26392;42.696;23.350;2023-04-07T03:54:40;95010.56;;;1.09;100.00
40708;BME280;26392;42.696;23.350;2023-04-07T03:57:06;95011.63;;;1.15;100.00
40708;BME280;26392;42.696;23.350;2023-04-07T03:59:32;95007.47;;;1.26;100.00
40708;BME280;26392;42.696;23.350;2023-04-07T04:01:57;95020.50;;;1.29;100.00
40708;BME280;26392;42.696;23.350;2023-04-07T04:04:23;95026.47;;;1.31;100.00
40708;BME280;26392;42.696;23.350;2023-04-07T04:06:49;95011.63;;;1.15;100.00
40708;BME280;26392;42.696;23.350;2023-04-07T04:09:14;95029.16;;;1.18;100.00
40708;BME280;26392;42.696;23.350;2023-04-07T04:11:40;95027.09;;;1.13;100.00
40708;BME280;26392;42.696;23.350;2023-04-07T04:14:06;95016.97;;;1.22;100.00
40708;BME280;26392;42.696;23.350;2023-04-07T04:16:32;95025.84;;;1.22;100.00
40708;BME280;26392;42.696;23.350;2023-04-07T04:18:59;95031.03;;;1.30;100.00
40708;BME280;26392;42.696;23.350;2023-04-07T04:21:25;95035.56;;;1.17;100.00
40708;BME280;26392;42.696;23.350;2023-04-07T04:23:51;95035.78;;;1.15;100.00
40708;BME280;26392;42.696;23.350;2023-04-07T04:26:17;95035.34;;;1.25;100.00
40708;BME280;26392;42.696;23.350;2023-04-07T04:28:42;95037.44;;;1.43;100.00
40708;BME280;26392;42.696;23.350;2023-04-07T04:31:08;95047.16;;;1.50;100.00
40708;BME280;26392;42.696;23.350;2023-04-07T04:33:33;95048.78;;;1.31;100.00
40708;BME280;26392;42.696;23.350;2023-04-07T04:35:58;95035.16;;;1.40;100.00
40708;BME280;26392;42.696;23.350;2023-04-07T04:38:24;95041.34;;;1.33;100.00
40708;BME280;26392;42.696;23.350;2023-04-07T04:40:49;95049.41;;;1.33;100.00
40708;BME280;26392;42.696;23.350;2023-04-07T04:43:15;95054.41;;;1.43;100.00
40708;BME280;26392;42.696;23.350;2023-04-07T04:45:40;95049.88;;;1.57;100.00
40708;BME280;26392;42.696;23.350;2023-04-07T04:48:06;95052.31;;;1.65;100.00
40708;BME280;26392;42.696;23.350;2023-04-07T04:50:31;95042.22;;;1.74;100.00
40708;BME280;26392;42.696;23.350;2023-04-07T04:52:57;95056.69;;;1.79;100.00
40708;BME280;26392;42.696;23.350;2023-04-07T04:55:22;95059.78;;;1.70;100.00
40708;BME280;26392;42.696;23.350;2023-04-07T04:57:48;95061.81;;;1.68;100.00
40708;BME280;26392;42.696;23.350;2023-04-07T05:00:13;95066.38;;;1.87;100.00
40708;BME280;26392;42.696;23.350;2023-04-07T05:02:39;95070.72;;;2.08;100.00
40708;BME280;26392;42.696;23.350;2023-04-07T05:05:05;95056.41;;;2.21;100.00
40708;BME280;26392;42.696;23.350;2023-04-07T05:07:30;95047.13;;;2.30;100.00
40708;BME280;26392;42.696;23.350;2023-04-07T05:09:55;95069.97;;;2.66;100.00
40708;BME280;26392;42.696;23.350;2023-04-07T05:12:21;95067.34;;;2.53;100.00
40708;BME280;26392;42.696;23.350;2023-04-07T05:14:46;95066.31;;;2.40;100.00
40708;BME280;26392;42.696;23.350;2023-04-07T05:17:12;95072.31;;;2.42;100.00
40708;BME280;26392;42.696;23.350;2023-04-07T05:19:37;95090.66;;;2.65;100.00
40708;BME280;26392;42.696;23.350;2023-04-07T05:22:03;95079.41;;;2.88;100.00
40708;BME280;26392;42.696;23.350;2023-04-07T05:24:28;95092.63;;;2.97;100.00
40708;BME280;26392;42.696;23.350;2023-04-07T05:26:54;95083.69;;;3.09;97.60
40708;BME280;26392;42.696;23.350;2023-04-07T05:29:21;95082.19;;;3.20;93.24
40708;BME280;26392;42.696;23.350;2023-04-07T05:31:47;95086.50;;;3.28;94.30
40708;BME280;26392;42.696;23.350;2023-04-07T05:34:12;95083.88;;;3.53;92.42
40708;BME280;26392;42.696;23.350;2023-04-07T05:36:37;95081.06;;;3.66;88.53
40708;BME280;26392;42.696;23.350;2023-04-07T05:39:03;95079.38;;;3.72;87.91
40708;BME280;26392;42.696;23.350;2023-04-07T05:41:28;95086.63;;;3.71;85.27
40708;BME280;26392;42.696;23.350;2023-04-07T05:43:54;95082.47;;;3.75;84.18
40708;BME280;26392;42.696;23.350;2023-04-07T05:46:19;95076.03;;;3.76;84.22
40708;BME280;26392;42.696;23.350;2023-04-07T05:48:45;95092.00;;;4.03;84.48
40708;BME280;26392;42.696;23.350;2023-04-07T05:51:10;95066.53;;;3.99;83.02
40708;BME280;26392;42.696;23.350;2023-04-07T05:53:35;95079.13;;;4.05;82.70
40708;BME280;26392;42.696;23.350;2023-04-07T05:56:01;95076.25;;;4.25;81.40
40708;BME280;26392;42.696;23.350;2023-04-07T05:58:26;95073.66;;;4.37;79.86
40708;BME280;26392;42.696;23.350;2023-04-07T06:00:52;95087.78;;;4.57;78.22
40708;BME280;26392;42.696;23.350;2023-04-07T06:03:18;95079.06;;;4.55;74.06
40708;BME280;26392;42.696;23.350;2023-04-07T06:05:46;95079.78;;;4.69;72.50
40708;BME280;26392;42.696;23.350;2023-04-07T06:08:12;95077.06;;;4.69;73.10
40708;BME280;26392;42.696;23.350;2023-04-07T06:10:37;95062.91;;;4.74;72.49
40708;BME280;26392;42.696;23.350;2023-04-07T06:13:04;95082.53;;;4.81;72.38
40708;BME280;26392;42.696;23.350;2023-04-07T06:15:29;95077.84;;;4.76;73.26
40708;BME280;26392;42.696;23.350;2023-04-07T06:17:54;95079.53;;;4.52;75.66
40708;BME280;26392;42.696;23.350;2023-04-07T06:20:20;95074.94;;;4.53;76.92
40708;BME280;26392;42.696;23.350;2023-04-07T06:22:47;95083.53;;;4.24;77.06
40708;BME280;26392;42.696;23.350;2023-04-07T06:25:12;95073.81;;;4.42;74.05
40708;BME280;26392;42.696;23.350;2023-04-07T06:27:38;95081.97;;;4.54;73.28
40708;BME280;26392;42.696;23.350;2023-04-07T06:30:03;95077.56;;;4.41;72.37
40708;BME280;26392;42.696;23.350;2023-04-07T06:32:29;95080.59;;;4.51;71.68
40708;BME280;26392;42.696;23.350;2023-04-07T06:34:54;95069.88;;;4.81;67.86
40708;BME280;26392;42.696;23.350;2023-04-07T06:37:20;95067.69;;;5.08;66.51
40708;BME280;26392;42.696;23.350;2023-04-07T06:39:48;95082.84;;;5.39;64.27
40708;BME280;26392;42.696;23.350;2023-04-07T06:42:14;95081.09;;;5.64;63.15
40708;BME280;26392;42.696;23.350;2023-04-07T06:44:39;95082.00;;;5.27;62.34
40708;BME280;26392;42.696;23.350;2023-04-07T06:47:05;95083.03;;;5.56;62.84
40708;BME280;26392;42.696;23.350;2023-04-07T06:49:30;95087.81;;;6.03;61.06
40708;BME280;26392;42.696;23.350;2023-04-07T06:51:56;95085.78;;;5.98;59.55
40708;BME280;26392;42.696;23.350;2023-04-07T06:54:21;95077.13;;;6.20;59.96
40708;BME280;26392;42.696;23.350;2023-04-07T06:56:47;95066.31;;;6.32;58.41
40708;BME280;26392;42.696;23.350;2023-04-07T06:59:12;95077.59;;;6.05;57.96
40708;BME280;26392;42.696;23.350;2023-04-07T07:01:37;95089.31;;;5.99;58.77
40708;BME280;26392;42.696;23.350;2023-04-07T07:04:03;95069.84;;;6.32;56.97
40708;BME280;26392;42.696;23.350;2023-04-07T07:06:30;95080.69;;;6.67;56.25
40708;BME280;26392;42.696;23.350;2023-04-07T07:08:56;95080.63;;;6.91;56.38
40708;BME280;26392;42.696;23.350;2023-04-07T07:11:21;95084.66;;;7.00;55.22
40708;BME280;26392;42.696;23.350;2023-04-07T07:13:47;95086.72;;;7.22;52.86
40708;BME280;26392;42.696;23.350;2023-04-07T07:16:12;95092.03;;;7.05;53.16
40708;BME280;26392;42.696;23.350;2023-04-07T07:18:38;95085.81;;;7.45;53.05
40708;BME280;26392;42.696;23.350;2023-04-07T07:21:03;95096.63;;;7.56;52.24
40708;BME280;26392;42.696;23.350;2023-04-07T07:23:29;95092.22;;;7.96;51.69
40708;BME280;26392;42.696;23.350;2023-04-07T07:25:55;95092.88;;;8.03;50.33
40708;BME280;26392;42.696;23.350;2023-04-07T07:28:20;95093.81;;;7.80;50.34
40708;BME280;26392;42.696;23.350;2023-04-07T07:30:46;95113.22;;;7.31;51.73
40708;BME280;26392;42.696;23.350;2023-04-07T07:33:12;95100.97;;;7.57;52.63
40708;BME280;26392;42.696;23.350;2023-04-07T07:35:37;95107.00;;;7.48;53.30
40708;BME280;26392;42.696;23.350;2023-04-07T07:38:04;95102.28;;;7.55;53.75
40708;BME280;26392;42.696;23.350;2023-04-07T07:40:30;95107.00;;;7.48;54.26
40708;BME280;26392;42.696;23.350;2023-04-07T07:42:55;95110.53;;;7.08;54.21
40708;BME280;26392;42.696;23.350;2023-04-07T07:45:21;95109.44;;;7.61;54.38
40708;BME280;26392;42.696;23.350;2023-04-07T07:47:46;95100.53;;;8.23;51.79
40708;BME280;26392;42.696;23.350;2023-04-07T07:50:12;95099.84;;;8.61;51.19
40708;BME280;26392;42.696;23.350;2023-04-07T07:52:37;95105.38;;;9.05;49.31
40708;BME280;26392;42.696;23.350;2023-04-07T07:55:03;95109.50;;;9.52;46.76
40708;BME280;26392;42.696;23.350;2023-04-07T07:57:28;95102.22;;;9.79;44.59
40708;BME280;26392;42.696;23.350;2023-04-07T07:59:55;95104.94;;;9.79;40.99
40708;BME280;26392;42.696;23.350;2023-04-07T08:02:20;95104.84;;;9.47;40.40
40708;BME280;26392;42.696;23.350;2023-04-07T08:04:46;95106.91;;;9.40;40.51
40708;BME280;26392;42.696;23.350;2023-04-07T08:07:11;95106.00;;;9.12;40.83
40708;BME280;26392;42.696;23.350;2023-04-07T08:09:37;95102.78;;;8.93;41.33
40708;BME280;26392;42.696;23.350;2023-04-07T08:12:02;95116.00;;;8.90;41.51
40708;BME280;26392;42.696;23.350;2023-04-07T08:14:28;95100.97;;;8.82;41.48
40708;BME280;26392;42.696;23.350;2023-04-07T08:16:54;95092.56;;;8.84;41.07
40708;BME280;26392;42.696;23.350;2023-04-07T08:19:19;95099.22;;;8.93;41.05
40708;BME280;26392;42.696;23.350;2023-04-07T08:21:45;95095.75;;;8.98;40.90
40708;BME280;26392;42.696;23.350;2023-04-07T08:24:10;95099.09;;;9.22;40.73
40708;BME280;26392;42.696;23.350;2023-04-07T08:26:36;95100.97;;;9.43;40.27
40708;BME280;26392;42.696;23.350;2023-04-07T08:29:01;95104.41;;;9.55;40.48
40708;BME280;26392;42.696;23.350;2023-04-07T08:31:27;95095.97;;;9.35;40.04
40708;BME280;26392;42.696;23.350;2023-04-07T08:33:52;95095.91;;;9.08;41.11
40708;BME280;26392;42.696;23.350;2023-04-07T08:36:22;95090.41;;;9.03;41.31
40708;BME280;26392;42.696;23.350;2023-04-07T08:38:48;95089.56;;;9.02;41.18
40708;BME280;26392;42.696;23.350;2023-04-07T08:41:17;95093.34;;;9.01;41.04
40708;BME280;26392;42.696;23.350;2023-04-07T08:43:46;95096.41;;;9.27;40.83
40708;BME280;26392;42.696;23.350;2023-04-07T08:46:13;95089.06;;;9.49;40.59
40708;BME280;26392;42.696;23.350;2023-04-07T08:48:43;95103.31;;;9.56;40.24
40708;BME280;26392;42.696;23.350;2023-04-07T08:51:12;95107.34;;;9.76;40.26
40708;BME280;26392;42.696;23.350;2023-04-07T08:53:49;95103.31;;;10.05;39.46
40708;BME280;26392;42.696;23.350;2023-04-07T08:56:16;95092.78;;;10.41;38.61
40708;BME280;26392;42.696;23.350;2023-04-07T08:58:43;95089.31;;;9.97;39.00
40708;BME280;26392;42.696;23.350;2023-04-07T09:01:09;95112.34;;;9.84;39.24
40708;BME280;26392;42.696;23.350;2023-04-07T09:03:35;95109.69;;;9.89;39.43
40708;BME280;26392;42.696;23.350;2023-04-07T09:06:02;95105.00;;;10.12;38.93
40708;BME280;26392;42.696;23.350;2023-04-07T09:08:28;95093.34;;;10.43;38.46
40708;BME280;26392;42.696;23.350;2023-04-07T09:10:55;95113.88;;;10.56;37.75
40708;BME280;26392;42.696;23.350;2023-04-07T09:13:21;95109.88;;;10.09;38.29
40708;BME280;26392;42.696;23.350;2023-04-07T09:15:48;95110.75;;;9.66;39.53
40708;BME280;26392;42.696;23.350;2023-04-07T09:18:13;95094.31;;;9.78;39.46
40708;BME280;26392;42.696;23.350;2023-04-07T09:23:32;95100.94;;;10.14;38.77
40708;BME280;26392;42.696;23.350;2023-04-07T09:26:00;95094.91;;;10.34;38.30
40708;BME280;26392;42.696;23.350;2023-04-07T09:28:41;95094.56;;;10.30;38.19
40708;BME280;26392;42.696;23.350;2023-04-07T09:31:07;95104.13;;;10.28;38.69
40708;BME280;26392;42.696;23.350;2023-04-07T09:33:33;95096.00;;;10.38;38.28
40708;BME280;26392;42.696;23.350;2023-04-07T09:35:58;95095.13;;;10.60;38.08
40708;BME280;26392;42.696;23.350;2023-04-07T09:38:31;95090.56;;;10.38;38.30
40708;BME280;26392;42.696;23.350;2023-04-07T09:41:10;95106.91;;;9.84;38.81
40708;BME280;26392;42.696;23.350;2023-04-07T09:43:40;95098.28;;;9.92;38.76
40708;BME280;26392;42.696;23.350;2023-04-07T09:46:13;95110.78;;;9.93;39.36
40708;BME280;26392;42.696;23.350;2023-04-07T09:48:40;95117.22;;;9.82;39.01
40708;BME280;26392;42.696;23.350;2023-04-07T09:51:11;95095.91;;;9.52;39.77
40708;BME280;26392;42.696;23.350;2023-04-07T09:53:47;95121.09;;;9.42;39.47
40708;BME280;26392;42.696;23.350;2023-04-07T09:56:18;95115.78;;;9.52;39.45
40708;BME280;26392;42.696;23.350;2023-04-07T09:58:45;95117.72;;;9.79;39.52
40708;BME280;26392;42.696;23.350;2023-04-07T10:01:12;95120.25;;;10.13;39.46
40708;BME280;26392;42.696;23.350;2023-04-07T10:03:38;95114.19;;;10.60;39.25
40708;BME280;26392;42.696;23.350;2023-04-07T10:06:04;95117.59;;;10.77;38.54
40708;BME280;26392;42.696;23.350;2023-04-07T10:08:35;95112.50;;;10.91;38.88
40708;BME280;26392;42.696;23.350;2023-04-07T10:11:02;95092.81;;;10.79;38.95
40708;BME280;26392;42.696;23.350;2023-04-07T10:13:29;95104.56;;;10.84;39.51
40708;BME280;26392;42.696;23.350;2023-04-07T10:15:56;95119.28;;;10.88;39.52
40708;BME280;26392;42.696;23.350;2023-04-07T10:18:22;95125.41;;;11.06;38.93
40708;BME280;26392;42.696;23.350;2023-04-07T10:20:51;95120.00;;;10.73;39.67
40708;BME280;26392;42.696;23.350;2023-04-07T10:23:21;95110.88;;;10.58;39.38
40708;BME280;26392;42.696;23.350;2023-04-07T10:25:50;95125.44;;;10.14;40.19
40708;BME280;26392;42.696;23.350;2023-04-07T10:28:19;95106.75;;;9.96;40.96
40708;BME280;26392;42.696;23.350;2023-04-07T10:30:46;95093.88;;;9.86;41.02
40708;BME280;26392;42.696;23.350;2023-04-07T10:33:12;95117.19;;;10.04;42.29
40708;BME280;26392;42.696;23.350;2023-04-07T10:36:02;95116.09;;;10.05;42.67
40708;BME280;26392;42.696;23.350;2023-04-07T10:38:27;95118.59;;;9.84;42.50
40708;BME280;26392;42.696;23.350;2023-04-07T10:40:53;95130.88;;;9.87;42.31
40708;BME280;26392;42.696;23.350;2023-04-07T10:43:38;95122.34;;;9.56;43.28
40708;BME280;26392;42.696;23.350;2023-04-07T10:46:06;95119.47;;;9.41;43.79
40708;BME280;26392;42.696;23.350;2023-04-07T10:48:31;95118.50;;;9.30;43.59
40708;BME280;26392;42.696;23.350;2023-04-07T10:53:28;95131.59;;;9.55;42.32
40708;BME280;26392;42.696;23.350;2023-04-07T10:55:54;95131.53;;;9.72;42.65
40708;BME280;26392;42.696;23.350;2023-04-07T11:03:35;95133.59;;;9.87;42.28
40708;BME280;26392;42.696;23.350;2023-04-07T11:08:41;95132.38;;;10.00;42.56
40708;BME280;26392;42.696;23.350;2023-04-07T11:11:08;95133.41;;;10.21;42.68
40708;BME280;26392;42.696;23.350;2023-04-07T11:13:48;95138.81;;;10.75;41.08
40708;BME280;26392;42.696;23.350;2023-04-07T11:16:16;95133.81;;;10.62;41.07
40708;BME280;26392;42.696;23.350;2023-04-07T11:18:43;95126.06;;;10.48;41.37
40708;BME280;26392;42.696;23.350;2023-04-07T11:21:08;95136.75;;;10.55;41.36
40708;BME280;26392;42.696;23.350;2023-04-07T11:23:42;95139.69;;;10.48;41.63
40708;BME280;26392;42.696;23.350;2023-04-07T11:26:09;95140.34;;;10.06;42.35
40708;BME280;26392;42.696;23.350;2023-04-07T11:28:53;95142.25;;;10.06;42.61
40708;BME280;26392;42.696;23.350;2023-04-07T11:31:23;95130.56;;;10.11;43.48
40708;BME280;26392;42.696;23.350;2023-04-07T11:33:53;95145.72;;;10.01;42.69
40708;BME280;26392;42.696;23.350;2023-04-07T11:36:29;95137.97;;;10.15;43.33
40708;BME280;26392;42.696;23.350;2023-04-07T11:38:57;95142.53;;;10.09;42.93
40708;BME280;26392;42.696;23.350;2023-04-07T11:41:24;95143.31;;;10.05;43.36
40708;BME280;26392;42.696;23.350;2023-04-07T11:44:09;95135.56;;;10.19;42.86
40708;BME280;26392;42.696;23.350;2023-04-07T11:46:36;95146.78;;;10.49;42.62
40708;BME280;26392;42.696;23.350;2023-04-07T11:49:12;95138.53;;;10.71;42.10
40708;BME280;26392;42.696;23.350;2023-04-07T11:51:38;95141.44;;;10.60;41.73
40708;BME280;26392;42.696;23.350;2023-04-07T11:54:04;95141.63;;;10.26;42.40
40708;BME280;26392;42.696;23.350;2023-04-07T11:56:41;95138.19;;;10.36;43.23
40708;BME280;26392;42.696;23.350;2023-04-07T11:59:06;95146.25;;;10.52;42.88
40708;BME280;26392;42.696;23.350;2023-04-07T12:01:41;95145.97;;;10.86;42.52
40708;BME280;26392;42.696;23.350;2023-04-07T12:04:10;95138.13;;;10.58;42.91
40708;BME280;26392;42.696;23.350;2023-04-07T12:06:36;95139.59;;;10.16;43.18
40708;BME280;26392;42.696;23.350;2023-04-07T12:11:53;95140.13;;;10.13;43.85
40708;BME280;26392;42.696;23.350;2023-04-07T12:14:19;95139.63;;;10.43;43.45
40708;BME280;26392;42.696;23.350;2023-04-07T12:16:45;95125.56;;;10.51;43.65
40708;BME280;26392;42.696;23.350;2023-04-07T12:19:11;95148.16;;;10.52;42.84
40708;BME280;26392;42.696;23.350;2023-04-07T12:21:37;95135.69;;;10.61;43.25
40708;BME280;26392;42.696;23.350;2023-04-07T12:24:02;95140.38;;;10.66;43.06
40708;BME280;26392;42.696;23.350;2023-04-07T12:26:28;95146.25;;;10.52;43.14
40708;BME280;26392;42.696;23.350;2023-04-07T12:28:53;95141.00;;;10.73;42.78
40708;BME280;26392;42.696;23.350;2023-04-07T12:31:19;95141.47;;;10.65;42.49
40708;BME280;26392;42.696;23.350;2023-04-07T12:33:45;95135.69;;;10.56;43.23
40708;BME280;26392;42.696;23.350;2023-04-07T12:36:11;95133.31;;;10.65;42.66
40708;BME280;26392;42.696;23.350;2023-04-07T12:38:40;95135.97;;;10.60;43.49
40708;BME280;26392;42.696;23.350;2023-04-07T12:41:06;95133.66;;;10.19;43.37
40708;BME280;26392;42.696;23.350;2023-04-07T12:43:31;95129.41;;;10.01;43.52
40708;BME280;26392;42.696;23.350;2023-04-07T12:45:57;95136.25;;;9.82;44.55
40708;BME280;26392;42.696;23.350;2023-04-07T12:48:23;95128.97;;;9.88;44.89
40708;BME280;26392;42.696;23.350;2023-04-07T12:50:49;95143.81;;;10.02;44.67
40708;BME280;26392;42.696;23.350;2023-04-07T12:53:14;95133.81;;;10.07;44.87
40708;BME280;26392;42.696;23.350;2023-04-07T12:55:39;95114.69;;;10.02;44.69
40708;BME280;26392;42.696;23.350;2023-04-07T12:58:06;95138.91;;;10.26;44.13
40708;BME280;26392;42.696;23.350;2023-04-07T13:00:33;95137.22;;;10.20;44.21
40708;BME280;26392;42.696;23.350;2023-04-07T13:02:58;95148.91;;;9.93;44.28
40708;BME280;26392;42.696;23.350;2023-04-07T13:05:24;95154.16;;;9.56;44.92
40708;BME280;26392;42.696;23.350;2023-04-07T13:07:49;95158.25;;;9.36;45.50
40708;BME280;26392;42.696;23.350;2023-04-07T13:10:15;95150.03;;;9.31;45.74
40708;BME280;26392;42.696;23.350;2023-04-07T13:12:40;95149.22;;;9.31;45.71
40708;BME280;26392;42.696;23.350;2023-04-07T13:15:06;95155.25;;;9.33;46.13